sensor_id;sensor_type;location;lat;lon;timestamp;pressure;altitude;pressure_sealevel;temperature;humidity
63088;BME280;49173;43.164;27.786;2022-09-14T00:00:17;100252.78;;;17.23;66.62
63088;BME280;49173;43.164;27.786;2022-09-14T00:02:43;100251.06;;;17.22;66.26
63088;BME280;49173;43.164;27.786;2022-09-14T00:05:11;100242.28;;;17.18;66.31
63088;BME280;49173;43.164;27.786;2022-09-14T00:07:37;100241.56;;;17.16;66.43
63088;BME280;49173;43.164;27.786;2022-09-14T00:10:03;100242.72;;;17.14;66.28
63088;BME280;49173;43.164;27.786;2022-09-14T00:12:29;100239.13;;;17.13;66.46
63088;BME280;49173;43.164;27.786;2022-09-14T00:14:55;100228.28;;;17.13;66.34
63088;BME280;49173;43.164;27.786;2022-09-14T00:17:20;100233.81;;;17.12;66.13
63088;BME280;49173;43.164;27.786;2022-09-14T00:19:46;100239.38;;;17.10;66.19
63088;BME280;49173;43.164;27.786;2022-09-14T00:22:12;100246.78;;;17.08;66.37
63088;BME280;49173;43.164;27.786;2022-09-14T00:24:39;100249.00;;;17.03;66.53
63088;BME280;49173;43.164;27.786;2022-09-14T00:27:04;100249.28;;;17.00;66.27
63088;BME280;49173;43.164;27.786;2022-09-14T00:29:31;100253.22;;;16.96;66.52
63088;BME280;49173;43.164;27.786;2022-09-14T00:31:58;100262.63;;;16.92;66.60
63088;BME280;49173;43.164;27.786;2022-09-14T00:34:24;100277.28;;;16.89;66.75
63088;BME280;49173;43.164;27.786;2022-09-14T00:36:51;100276.41;;;16.89;66.50
63088;BME280;49173;43.164;27.786;2022-09-14T00:39:18;100268.56;;;16.86;66.31
63088;BME280;49173;43.164;27.786;2022-09-14T00:41:46;100279.63;;;16.83;66.20
63088;BME280;49173;43.164;27.786;2022-09-14T00:46:45;100266.97;;;16.72;66.62
63088;BME280;49173;43.164;27.786;2022-09-14T00:49:17;100265.84;;;16.63;66.65
63088;BME280;49173;43.164;27.786;2022-09-14T00:52:09;100264.50;;;16.58;66.91
63088;BME280;49173;43.164;27.786;2022-09-14T00:54:35;100260.19;;;16.55;67.43
63088;BME280;49173;43.164;27.786;2022-09-14T00:57:02;100259.56;;;16.52;67.95
63088;BME280;49173;43.164;27.786;2022-09-14T00:59:30;100258.72;;;16.51;68.05
63088;BME280;49173;43.164;27.786;2022-09-14T01:01:57;100257.47;;;16.55;68.03
63088;BME280;49173;43.164;27.786;2022-09-14T01:04:23;100253.91;;;16.55;67.94
63088;BME280;49173;43.164;27.786;2022-09-14T01:15:08;100257.72;;;16.52;66.02
63088;BME280;49173;43.164;27.786;2022-09-14T01:32:24;100251.09;;;16.34;64.66
63088;BME280;49173;43.164;27.786;2022-09-14T01:34:39;100250.22;;;16.33;64.42
63088;BME280;49173;43.164;27.786;2022-09-14T01:37:13;100251.09;;;16.34;64.35
63088;BME280;49173;43.164;27.786;2022-09-14T01:39:50;100257.50;;;16.33;64.09
63088;BME280;49173;43.164;27.786;2022-09-14T01:42:19;100258.47;;;16.32;64.26
63088;BME280;49173;43.164;27.786;2022-09-14T01:44:51;100263.03;;;16.31;64.14
63088;BME280;49173;43.164;27.786;2022-09-14T01:47:27;100264.50;;;16.24;64.10
63088;BME280;49173;43.164;27.786;2022-09-14T01:50:02;100261.31;;;16.19;64.28
63088;BME280;49173;43.164;27.786;2022-09-14T01:52:46;100259.84;;;16.15;64.25
63088;BME280;49173;43.164;27.786;2022-09-14T01:55:19;100259.94;;;16.13;64.21
63088;BME280;49173;43.164;27.786;2022-09-14T01:57:52;100258.84;;;16.16;64.10
63088;BME280;49173;43.164;27.786;2022-09-14T02:00:21;100263.41;;;16.15;63.61
63088;BME280;49173;43.164;27.786;2022-09-14T02:02:57;100258.97;;;16.14;63.47
63088;BME280;49173;43.164;27.786;2022-09-14T02:05:35;100256.50;;;16.11;63.63
63088;BME280;49173;43.164;27.786;2022-09-14T02:08:01;100273.75;;;16.10;63.42
63088;BME280;49173;43.164;27.786;2022-09-14T02:10:27;100262.91;;;16.10;63.20
63088;BME280;49173;43.164;27.786;2022-09-14T02:12:54;100256.00;;;16.06;63.28
63088;BME280;49173;43.164;27.786;2022-09-14T02:15:21;100259.22;;;16.00;63.04
63088;BME280;49173;43.164;27.786;2022-09-14T02:17:48;100257.38;;;16.01;63.03
63088;BME280;49173;43.164;27.786;2022-09-14T02:20:21;100253.81;;;16.00;62.22
63088;BME280;49173;43.164;27.786;2022-09-14T02:22:50;100262.03;;;15.99;62.16
63088;BME280;49173;43.164;27.786;2022-09-14T02:25:16;100263.41;;;15.93;62.34
63088;BME280;49173;43.164;27.786;2022-09-14T02:27:42;100269.28;;;15.87;62.51
63088;BME280;49173;43.164;27.786;2022-09-14T02:30:08;100272.09;;;15.85;62.34
63088;BME280;49173;43.164;27.786;2022-09-14T02:35:23;100261.78;;;15.79;62.07
63088;BME280;49173;43.164;27.786;2022-09-14T02:43:45;100263.63;;;15.79;61.20
63088;BME280;49173;43.164;27.786;2022-09-14T02:46:58;100250.09;;;15.79;61.14
63088;BME280;49173;43.164;27.786;2022-09-14T02:49:57;100254.88;;;15.75;61.21
63088;BME280;49173;43.164;27.786;2022-09-14T02:55:18;100252.50;;;15.71;60.89
63088;BME280;49173;43.164;27.786;2022-09-14T02:58:06;100254.59;;;15.67;60.78
63088;BME280;49173;43.164;27.786;2022-09-14T03:00:35;100245.75;;;15.65;60.79
63088;BME280;49173;43.164;27.786;2022-09-14T03:03:03;100254.59;;;15.67;60.77
63088;BME280;49173;43.164;27.786;2022-09-14T03:05:30;100248.47;;;15.65;60.79
63088;BME280;49173;43.164;27.786;2022-09-14T03:07:58;100248.56;;;15.63;60.85
63088;BME280;49173;43.164;27.786;2022-09-14T03:10:25;100247.69;;;15.63;60.59
63088;BME280;49173;43.164;27.786;2022-09-14T03:12:51;100250.53;;;15.61;60.71
63088;BME280;49173;43.164;27.786;2022-09-14T03:15:17;100256.88;;;15.60;60.32
63088;BME280;49173;43.164;27.786;2022-09-14T03:17:47;100252.47;;;15.59;60.67
63088;BME280;49173;43.164;27.786;2022-09-14T03:20:20;100251.09;;;15.54;60.48
63088;BME280;49173;43.164;27.786;2022-09-14T03:22:46;100254.78;;;15.53;60.39
63088;BME280;49173;43.164;27.786;2022-09-14T03:25:12;100248.72;;;15.49;60.72
63088;BME280;49173;43.164;27.786;2022-09-14T03:27:39;100262.25;;;15.49;60.73
63088;BME280;49173;43.164;27.786;2022-09-14T03:30:06;100259.94;;;15.45;61.01
63088;BME280;49173;43.164;27.786;2022-09-14T03:32:32;100265.44;;;15.43;61.22
63088;BME280;49173;43.164;27.786;2022-09-14T03:34:58;100272.81;;;15.41;61.18
63088;BME280;49173;43.164;27.786;2022-09-14T03:37:25;100276.75;;;15.37;61.02
63088;BME280;49173;43.164;27.786;2022-09-14T03:39:51;100282.16;;;15.37;61.31
63088;BME280;49173;43.164;27.786;2022-09-14T03:42:17;100296.41;;;15.39;61.20
63088;BME280;49173;43.164;27.786;2022-09-14T03:44:43;100299.31;;;15.36;61.07
63088;BME280;49173;43.164;27.786;2022-09-14T03:47:08;100299.69;;;15.31;61.46
63088;BME280;49173;43.164;27.786;2022-09-14T03:49:34;100301.28;;;15.34;61.73
63088;BME280;49173;43.164;27.786;2022-09-14T03:52:00;100303.38;;;15.30;61.79
63088;BME280;49173;43.164;27.786;2022-09-14T03:54:26;100299.91;;;15.28;61.92
63088;BME280;49173;43.164;27.786;2022-09-14T03:56:53;100301.03;;;15.26;61.86
63088;BME280;49173;43.164;27.786;2022-09-14T03:59:19;100300.78;;;15.29;62.07
63088;BME280;49173;43.164;27.786;2022-09-14T04:01:46;100302.75;;;15.27;62.45
63088;BME280;49173;43.164;27.786;2022-09-14T04:04:12;100299.81;;;15.30;62.65
63088;BME280;49173;43.164;27.786;2022-09-14T04:06:37;100298.19;;;15.27;62.48
63088;BME280;49173;43.164;27.786;2022-09-14T04:09:04;100306.09;;;15.30;62.74
63088;BME280;49173;43.164;27.786;2022-09-14T04:11:30;100301.66;;;15.29;62.84
63088;BME280;49173;43.164;27.786;2022-09-14T04:14:02;100307.16;;;15.28;62.71
63088;BME280;49173;43.164;27.786;2022-09-14T04:16:29;100311.59;;;15.29;62.77
63088;BME280;49173;43.164;27.786;2022-09-14T04:18:55;100316.66;;;15.33;62.83
63088;BME280;49173;43.164;27.786;2022-09-14T04:21:23;100319.88;;;15.38;62.46
63088;BME280;49173;43.164;27.786;2022-09-14T04:23:54;100320.50;;;15.42;62.75
63088;BME280;49173;43.164;27.786;2022-09-14T04:26:23;100309.88;;;15.52;62.88
63088;BME280;49173;43.164;27.786;2022-09-14T04:28:49;100314.38;;;16.33;61.35
63088;BME280;49173;43.164;27.786;2022-09-14T04:31:15;100308.31;;;17.08;58.69
63088;BME280;49173;43.164;27.786;2022-09-14T04:33:42;100303.34;;;18.19;55.73
63088;BME280;49173;43.164;27.786;2022-09-14T04:36:11;100320.47;;;19.11;52.36
63088;BME280;49173;43.164;27.786;2022-09-14T04:38:38;100319.75;;;19.38;51.00
63088;BME280;49173;43.164;27.786;2022-09-14T04:41:23;100314.75;;;19.24;50.62
63088;BME280;49173;43.164;27.786;2022-09-14T04:43:51;100321.44;;;19.00;51.75
63088;BME280;49173;43.164;27.786;2022-09-14T04:46:19;100322.53;;;18.78;52.37
63088;BME280;49173;43.164;27.786;2022-09-14T04:48:46;100328.44;;;18.62;52.94
63088;BME280;49173;43.164;27.786;2022-09-14T04:51:14;100320.19;;;18.43;53.15
63088;BME280;49173;43.164;27.786;2022-09-14T04:53:45;100321.28;;;18.31;53.09
63088;BME280;49173;43.164;27.786;2022-09-14T04:56:12;100322.38;;;18.19;53.47
63088;BME280;49173;43.164;27.786;2022-09-14T04:58:41;100335.88;;;18.09;53.97
63088;BME280;49173;43.164;27.786;2022-09-14T05:01:11;100332.69;;;18.04;54.00
63088;BME280;49173;43.164;27.786;2022-09-14T05:03:38;100330.31;;;17.90;54.59
63088;BME280;49173;43.164;27.786;2022-09-14T05:06:08;100323.56;;;17.84;54.96
63088;BME280;49173;43.164;27.786;2022-09-14T05:08:35;100323.34;;;17.76;55.04
63088;BME280;49173;43.164;27.786;2022-09-14T05:11:06;100331.91;;;17.71;55.50
63088;BME280;49173;43.164;27.786;2022-09-14T05:13:33;100330.03;;;17.61;55.97
63088;BME280;49173;43.164;27.786;2022-09-14T05:16:21;100327.34;;;17.61;55.79
63088;BME280;49173;43.164;27.786;2022-09-14T05:18:48;100334.28;;;17.53;55.89
63088;BME280;49173;43.164;27.786;2022-09-14T05:21:17;100333.38;;;17.64;55.96
63088;BME280;49173;43.164;27.786;2022-09-14T05:23:43;100326.34;;;17.62;55.95
63088;BME280;49173;43.164;27.786;2022-09-14T05:26:09;100336.09;;;17.64;55.48
63088;BME280;49173;43.164;27.786;2022-09-14T05:28:35;100332.47;;;17.75;55.27
63088;BME280;49173;43.164;27.786;2022-09-14T05:31:09;100328.53;;;17.79;54.89
63088;BME280;49173;43.164;27.786;2022-09-14T05:33:37;100341.97;;;17.80;54.86
63088;BME280;49173;43.164;27.786;2022-09-14T05:36:05;100330.56;;;17.87;54.42
63088;BME280;49173;43.164;27.786;2022-09-14T05:38:33;100328.06;;;17.95;53.54
63088;BME280;49173;43.164;27.786;2022-09-14T05:40:59;100328.16;;;18.04;53.54
63088;BME280;49173;43.164;27.786;2022-09-14T05:43:24;100332.16;;;18.10;53.50
63088;BME280;49173;43.164;27.786;2022-09-14T05:45:50;100334.09;;;18.19;52.88
63088;BME280;49173;43.164;27.786;2022-09-14T05:48:17;100343.44;;;18.26;52.71
63088;BME280;49173;43.164;27.786;2022-09-14T05:50:42;100340.91;;;18.34;51.99
63088;BME280;49173;43.164;27.786;2022-09-14T05:53:08;100339.06;;;18.45;51.29
63088;BME280;49173;43.164;27.786;2022-09-14T05:55:34;100345.84;;;18.50;51.24
63088;BME280;49173;43.164;27.786;2022-09-14T05:58:00;100350.34;;;18.61;50.82
63088;BME280;49173;43.164;27.786;2022-09-14T06:00:26;100346.09;;;18.68;50.25
63088;BME280;49173;43.164;27.786;2022-09-14T06:02:53;100348.00;;;18.77;50.21
63088;BME280;49173;43.164;27.786;2022-09-14T06:05:20;100354.31;;;18.87;50.27
63088;BME280;49173;43.164;27.786;2022-09-14T06:07:51;100350.78;;;18.97;49.81
63088;BME280;49173;43.164;27.786;2022-09-14T06:10:17;100358.38;;;19.03;49.79
63088;BME280;49173;43.164;27.786;2022-09-14T06:12:43;100360.28;;;19.12;49.81
63088;BME280;49173;43.164;27.786;2022-09-14T06:15:09;100357.72;;;19.20;49.26
63088;BME280;49173;43.164;27.786;2022-09-14T06:17:35;100361.28;;;19.30;48.77
63088;BME280;49173;43.164;27.786;2022-09-14T06:20:03;100362.91;;;19.42;48.62
63088;BME280;49173;43.164;27.786;2022-09-14T06:22:30;100367.22;;;19.55;48.41
63088;BME280;49173;43.164;27.786;2022-09-14T06:24:56;100376.56;;;19.62;48.24
63088;BME280;49173;43.164;27.786;2022-09-14T06:27:22;100362.97;;;19.71;48.04
63088;BME280;49173;43.164;27.786;2022-09-14T06:29:48;100373.88;;;19.81;48.02
63088;BME280;49173;43.164;27.786;2022-09-14T06:32:19;100386.03;;;19.96;47.62
63088;BME280;49173;43.164;27.786;2022-09-14T06:34:45;100383.47;;;20.05;47.74
63088;BME280;49173;43.164;27.786;2022-09-14T06:37:11;100383.31;;;20.16;48.20
63088;BME280;49173;43.164;27.786;2022-09-14T06:39:37;100380.41;;;20.27;48.02
63088;BME280;49173;43.164;27.786;2022-09-14T06:42:03;100379.25;;;20.39;47.66
63088;BME280;49173;43.164;27.786;2022-09-14T06:44:30;100386.88;;;20.45;47.59
63088;BME280;49173;43.164;27.786;2022-09-14T06:46:55;100388.28;;;20.49;47.15
63088;BME280;49173;43.164;27.786;2022-09-14T06:49:21;100387.00;;;20.53;47.05
63088;BME280;49173;43.164;27.786;2022-09-14T06:51:49;100383.38;;;20.63;46.79
63088;BME280;49173;43.164;27.786;2022-09-14T06:54:16;100385.81;;;20.66;46.37
63088;BME280;49173;43.164;27.786;2022-09-14T06:56:44;100387.22;;;20.70;46.34
63088;BME280;49173;43.164;27.786;2022-09-14T06:59:12;100381.31;;;20.74;46.22
63088;BME280;49173;43.164;27.786;2022-09-14T07:01:38;100388.34;;;20.77;45.87
63088;BME280;49173;43.164;27.786;2022-09-14T07:04:04;100385.75;;;20.75;45.91
63088;BME280;49173;43.164;27.786;2022-09-14T07:06:36;100380.31;;;20.75;45.95
63088;BME280;49173;43.164;27.786;2022-09-14T07:09:04;100387.63;;;20.75;46.54
63088;BME280;49173;43.164;27.786;2022-09-14T07:11:30;100390.19;;;20.76;46.05
63088;BME280;49173;43.164;27.786;2022-09-14T07:13:57;100389.50;;;20.74;46.18
63088;BME280;49173;43.164;27.786;2022-09-14T07:16:28;100382.72;;;20.78;46.10
63088;BME280;49173;43.164;27.786;2022-09-14T07:18:56;100379.56;;;20.83;45.99
63088;BME280;49173;43.164;27.786;2022-09-14T07:21:22;100386.13;;;20.90;46.10
63088;BME280;49173;43.164;27.786;2022-09-14T07:23:49;100385.22;;;20.99;45.66
63088;BME280;49173;43.164;27.786;2022-09-14T07:26:22;100380.19;;;21.04;45.55
63088;BME280;49173;43.164;27.786;2022-09-14T07:28:52;100380.44;;;21.11;45.42
63088;BME280;49173;43.164;27.786;2022-09-14T07:31:28;100377.09;;;21.17;45.63
63088;BME280;49173;43.164;27.786;2022-09-14T07:33:57;100382.13;;;21.22;44.90
63088;BME280;49173;43.164;27.786;2022-09-14T07:36:24;100375.63;;;21.23;44.97
63088;BME280;49173;43.164;27.786;2022-09-14T07:38:51;100385.81;;;21.30;44.95
63088;BME280;49173;43.164;27.786;2022-09-14T07:41:17;100383.34;;;21.37;44.02
63088;BME280;49173;43.164;27.786;2022-09-14T07:43:43;100387.47;;;21.41;44.61
63088;BME280;49173;43.164;27.786;2022-09-14T07:46:12;100369.94;;;21.44;44.26
63088;BME280;49173;43.164;27.786;2022-09-14T07:48:38;100367.44;;;21.50;44.29
63088;BME280;49173;43.164;27.786;2022-09-14T07:51:06;100365.94;;;21.56;44.06
63088;BME280;49173;43.164;27.786;2022-09-14T07:53:37;100368.53;;;21.57;44.10
63088;BME280;49173;43.164;27.786;2022-09-14T07:56:04;100377.28;;;21.61;44.37
63088;BME280;49173;43.164;27.786;2022-09-14T07:58:30;100371.34;;;21.65;44.26
63088;BME280;49173;43.164;27.786;2022-09-14T08:01:01;100371.59;;;21.72;43.47
63088;BME280;49173;43.164;27.786;2022-09-14T08:03:28;100362.03;;;21.76;42.97
63088;BME280;49173;43.164;27.786;2022-09-14T08:06:05;100361.03;;;21.77;42.90
63088;BME280;49173;43.164;27.786;2022-09-14T08:08:34;100359.88;;;21.80;42.81
63088;BME280;49173;43.164;27.786;2022-09-14T08:11:16;100355.50;;;21.87;42.36
63088;BME280;49173;43.164;27.786;2022-09-14T08:13:44;100360.28;;;21.85;42.60
63088;BME280;49173;43.164;27.786;2022-09-14T08:16:11;100353.63;;;21.87;42.86
63088;BME280;49173;43.164;27.786;2022-09-14T08:18:38;100355.91;;;21.92;42.27
63088;BME280;49173;43.164;27.786;2022-09-14T08:21:10;100351.81;;;21.96;42.23
63088;BME280;49173;43.164;27.786;2022-09-14T08:23:37;100345.38;;;22.05;42.08
63088;BME280;49173;43.164;27.786;2022-09-14T08:26:09;100351.97;;;22.12;41.62
63088;BME280;49173;43.164;27.786;2022-09-14T08:28:35;100352.53;;;22.16;41.74
63088;BME280;49173;43.164;27.786;2022-09-14T08:31:08;100354.63;;;22.22;41.24
63088;BME280;49173;43.164;27.786;2022-09-14T08:33:37;100352.09;;;22.29;40.81
63088;BME280;49173;43.164;27.786;2022-09-14T08:36:05;100337.81;;;22.35;41.45
63088;BME280;49173;43.164;27.786;2022-09-14T08:38:31;100343.50;;;22.41;41.17
63088;BME280;49173;43.164;27.786;2022-09-14T08:41:04;100346.28;;;22.50;40.94
63088;BME280;49173;43.164;27.786;2022-09-14T08:43:32;100337.91;;;22.51;40.33
63088;BME280;49173;43.164;27.786;2022-09-14T08:46:04;100340.84;;;22.58;39.71
63088;BME280;49173;43.164;27.786;2022-09-14T08:48:37;100338.97;;;22.58;40.45
63088;BME280;49173;43.164;27.786;2022-09-14T08:51:05;100339.34;;;22.63;40.09
63088;BME280;49173;43.164;27.786;2022-09-14T08:53:37;100324.13;;;22.69;40.35
63088;BME280;49173;43.164;27.786;2022-09-14T08:56:23;100323.13;;;22.70;39.76
63088;BME280;49173;43.164;27.786;2022-09-14T09:05:06;100317.19;;;22.83;38.35
63088;BME280;49173;43.164;27.786;2022-09-14T09:08:17;100315.91;;;22.95;37.83
63088;BME280;49173;43.164;27.786;2022-09-14T09:10:41;100312.69;;;23.08;37.72
63088;BME280;49173;43.164;27.786;2022-09-14T09:13:11;100306.38;;;23.15;37.58
63088;BME280;49173;43.164;27.786;2022-09-14T09:15:46;100319.25;;;23.23;37.85
63088;BME280;49173;43.164;27.786;2022-09-14T09:18:26;100310.72;;;23.26;36.47
63088;BME280;49173;43.164;27.786;2022-09-14T09:21:02;100321.13;;;23.22;34.63
63088;BME280;49173;43.164;27.786;2022-09-14T09:23:30;100319.25;;;23.31;34.72
63088;BME280;49173;43.164;27.786;2022-09-14T09:26:13;100321.31;;;23.37;34.39
63088;BME280;49173;43.164;27.786;2022-09-14T09:29:01;100320.47;;;23.37;34.86
63088;BME280;49173;43.164;27.786;2022-09-14T09:31:37;100312.63;;;23.42;34.21
63088;BME280;49173;43.164;27.786;2022-09-14T09:34:04;100304.22;;;23.51;34.60
63088;BME280;49173;43.164;27.786;2022-09-14T09:36:36;100296.38;;;23.56;34.55
63088;BME280;49173;43.164;27.786;2022-09-14T09:39:04;100292.41;;;23.51;34.07
63088;BME280;49173;43.164;27.786;2022-09-14T09:41:40;100294.84;;;23.54;34.28
63088;BME280;49173;43.164;27.786;2022-09-14T09:44:08;100299.09;;;23.56;34.72
63088;BME280;49173;43.164;27.786;2022-09-14T09:46:47;100297.25;;;23.65;34.17
63088;BME280;49173;43.164;27.786;2022-09-14T09:51:41;100281.53;;;23.75;33.54
63088;BME280;49173;43.164;27.786;2022-09-14T09:56:52;100293.66;;;23.89;34.34
63088;BME280;49173;43.164;27.786;2022-09-14T10:01:52;100281.13;;;23.95;33.01
63088;BME280;49173;43.164;27.786;2022-09-14T10:04:25;100286.28;;;23.98;33.65
63088;BME280;49173;43.164;27.786;2022-09-14T10:06:55;100285.75;;;24.02;33.05
63088;BME280;49173;43.164;27.786;2022-09-14T10:09:26;100289.34;;;24.03;33.41
63088;BME280;49173;43.164;27.786;2022-09-14T10:12:01;100296.22;;;24.07;33.83
63088;BME280;49173;43.164;27.786;2022-09-14T10:17:19;100285.75;;;24.19;32.90
63088;BME280;49173;43.164;27.786;2022-09-14T10:19:53;100286.91;;;24.24;33.14
63088;BME280;49173;43.164;27.786;2022-09-14T10:27:45;100278.13;;;24.61;32.48
63088;BME280;49173;43.164;27.786;2022-09-14T10:30:23;100280.31;;;24.74;32.40
63088;BME280;49173;43.164;27.786;2022-09-14T10:32:59;100282.69;;;24.77;32.16
63088;BME280;49173;43.164;27.786;2022-09-14T10:35:47;100265.69;;;24.82;31.80
63088;BME280;49173;43.164;27.786;2022-09-14T10:46:32;100268.81;;;25.02;32.04
63088;BME280;49173;43.164;27.786;2022-09-14T10:57:12;100259.69;;;25.40;31.79
63088;BME280;49173;43.164;27.786;2022-09-14T10:59:51;100258.03;;;25.54;32.03
63088;BME280;49173;43.164;27.786;2022-09-14T11:05:20;100238.50;;;25.72;31.33
63088;BME280;49173;43.164;27.786;2022-09-14T11:15:47;100222.34;;;26.07;31.45
63088;BME280;49173;43.164;27.786;2022-09-14T11:23:43;100231.28;;;26.23;31.03
63088;BME280;49173;43.164;27.786;2022-09-14T11:26:21;100235.56;;;26.26;29.98
63088;BME280;49173;43.164;27.786;2022-09-14T11:29:04;100232.34;;;26.37;30.21
63088;BME280;49173;43.164;27.786;2022-09-14T11:31:35;100232.47;;;26.44;29.67
63088;BME280;49173;43.164;27.786;2022-09-14T11:36:48;100228.06;;;26.49;29.88
63088;BME280;49173;43.164;27.786;2022-09-14T11:39:37;100223.59;;;26.63;29.25
63088;BME280;49173;43.164;27.786;2022-09-14T11:42:08;100218.88;;;26.72;29.74
63088;BME280;49173;43.164;27.786;2022-09-14T11:44:37;100217.22;;;26.77;29.15
63088;BME280;49173;43.164;27.786;2022-09-14T11:52:19;100208.13;;;26.98;27.92
63088;BME280;49173;43.164;27.786;2022-09-14T11:54:46;100208.63;;;27.02;28.29
63088;BME280;49173;43.164;27.786;2022-09-14T11:57:18;100213.19;;;27.09;28.43
63088;BME280;49173;43.164;27.786;2022-09-14T12:18:13;100157.41;;;27.50;28.03
63088;BME280;49173;43.164;27.786;2022-09-14T12:20:41;100153.00;;;27.56;27.63
63088;BME280;49173;43.164;27.786;2022-09-14T12:23:16;100155.78;;;27.62;28.11
63088;BME280;49173;43.164;27.786;2022-09-14T12:36:08;100142.72;;;27.99;27.79
63088;BME280;49173;43.164;27.786;2022-09-14T12:39:04;100137.25;;;28.06;27.49
63088;BME280;49173;43.164;27.786;2022-09-14T12:44:00;100131.38;;;28.22;27.72
63088;BME280;49173;43.164;27.786;2022-09-14T12:48:59;100129.50;;;28.29;27.87
63088;BME280;49173;43.164;27.786;2022-09-14T12:56:45;100127.94;;;28.48;27.54
63088;BME280;49173;43.164;27.786;2022-09-14T13:04:57;100122.44;;;28.61;27.42
63088;BME280;49173;43.164;27.786;2022-09-14T13:07:29;100114.59;;;28.65;27.43
63088;BME280;49173;43.164;27.786;2022-09-14T13:09:57;100117.38;;;28.71;27.16
63088;BME280;49173;43.164;27.786;2022-09-14T13:15:25;100119.53;;;28.76;26.46
63088;BME280;49173;43.164;27.786;2022-09-14T13:18:01;100107.59;;;28.82;26.71
63088;BME280;49173;43.164;27.786;2022-09-14T13:20:30;100105.94;;;28.88;26.49
63088;BME280;49173;43.164;27.786;2022-09-14T13:22:56;100103.44;;;28.93;26.56
63088;BME280;49173;43.164;27.786;2022-09-14T13:25:29;100107.47;;;28.97;25.93
63088;BME280;49173;43.164;27.786;2022-09-14T13:28:02;100100.69;;;29.06;25.67
63088;BME280;49173;43.164;27.786;2022-09-14T13:30:30;100105.78;;;29.09;25.58
63088;BME280;49173;43.164;27.786;2022-09-14T13:32:57;100110.22;;;29.10;25.88
63088;BME280;49173;43.164;27.786;2022-09-14T13:38:09;100112.38;;;29.08;25.82
63088;BME280;49173;43.164;27.786;2022-09-14T13:40:39;100109.38;;;29.10;26.01
63088;BME280;49173;43.164;27.786;2022-09-14T13:43:05;100113.00;;;29.10;25.71
63088;BME280;49173;43.164;27.786;2022-09-14T13:45:32;100110.25;;;28.97;24.62
63088;BME280;49173;43.164;27.786;2022-09-14T13:47:59;100108.88;;;28.80;25.04
63088;BME280;49173;43.164;27.786;2022-09-14T13:50:25;100106.75;;;28.68;24.71
63088;BME280;49173;43.164;27.786;2022-09-14T13:52:52;100113.53;;;28.72;25.06
63088;BME280;49173;43.164;27.786;2022-09-14T14:00:54;100108.47;;;28.89;26.30
63088;BME280;49173;43.164;27.786;2022-09-14T14:05:55;100108.97;;;29.06;26.34
63088;BME280;49173;43.164;27.786;2022-09-14T14:10:56;100100.03;;;29.11;25.63
63088;BME280;49173;43.164;27.786;2022-09-14T14:13:28;100094.53;;;29.04;25.45
63088;BME280;49173;43.164;27.786;2022-09-14T14:16:15;100100.69;;;29.06;25.72
63088;BME280;49173;43.164;27.786;2022-09-14T14:18:48;100104.31;;;29.13;26.13
63088;BME280;49173;43.164;27.786;2022-09-14T14:24:22;100108.53;;;29.16;25.88
63088;BME280;49173;43.164;27.786;2022-09-14T14:26:51;100110.91;;;29.12;25.77
63088;BME280;49173;43.164;27.786;2022-09-14T14:29:17;100110.44;;;29.09;26.18
63088;BME280;49173;43.164;27.786;2022-09-14T14:31:44;100113.88;;;29.04;26.42
63088;BME280;49173;43.164;27.786;2022-09-14T14:34:17;100108.34;;;29.04;26.47
63088;BME280;49173;43.164;27.786;2022-09-14T14:36:43;100111.09;;;29.04;26.55
63088;BME280;49173;43.164;27.786;2022-09-14T14:39:09;100107.28;;;29.05;26.30
63088;BME280;49173;43.164;27.786;2022-09-14T14:41:35;100108.13;;;29.06;26.30
63088;BME280;49173;43.164;27.786;2022-09-14T14:44:02;100125.56;;;29.06;26.06
63088;BME280;49173;43.164;27.786;2022-09-14T14:46:28;100115.34;;;29.07;26.25
63088;BME280;49173;43.164;27.786;2022-09-14T14:48:55;100117.91;;;29.08;26.48
63088;BME280;49173;43.164;27.786;2022-09-14T14:51:20;100110.66;;;29.07;26.30
63088;BME280;49173;43.164;27.786;2022-09-14T14:53:46;100113.84;;;29.11;26.29
63088;BME280;49173;43.164;27.786;2022-09-14T14:56:12;100119.81;;;29.08;25.85
63088;BME280;49173;43.164;27.786;2022-09-14T14:58:45;100121.28;;;29.04;26.13
63088;BME280;49173;43.164;27.786;2022-09-14T15:01:13;100127.47;;;28.99;26.60
63088;BME280;49173;43.164;27.786;2022-09-14T15:03:39;100129.78;;;28.95;26.63
63088;BME280;49173;43.164;27.786;2022-09-14T15:06:12;100126.59;;;28.92;26.67
63088;BME280;49173;43.164;27.786;2022-09-14T15:08:40;100119.75;;;28.88;26.78
63088;BME280;49173;43.164;27.786;2022-09-14T15:11:14;100114.41;;;28.80;26.92
63088;BME280;49173;43.164;27.786;2022-09-14T15:13:43;100117.38;;;28.71;27.21
63088;BME280;49173;43.164;27.786;2022-09-14T15:16:09;100118.19;;;28.65;27.05
63088;BME280;49173;43.164;27.786;2022-09-14T15:18:35;100112.44;;;28.60;27.41
63088;BME280;49173;43.164;27.786;2022-09-14T15:21:01;100113.47;;;28.53;27.89
63088;BME280;49173;43.164;27.786;2022-09-14T15:23:26;100105.19;;;28.46;28.08
63088;BME280;49173;43.164;27.786;2022-09-14T15:25:52;100108.75;;;28.40;27.97
63088;BME280;49173;43.164;27.786;2022-09-14T15:28:18;100100.66;;;28.32;28.42
63088;BME280;49173;43.164;27.786;2022-09-14T15:30:44;100107.38;;;28.23;28.58
63088;BME280;49173;43.164;27.786;2022-09-14T15:33:10;100103.97;;;28.14;28.58
63088;BME280;49173;43.164;27.786;2022-09-14T15:35:36;100107.53;;;28.08;28.68